| time (UTC) | temp F | wind direction | speed MPH | gust MPH | rain 1hr in | rain 24hr in | rain mn in | humidity % | barometer mb |
| 20260903083027 | 69 | 206 | 0.0 | 0.0 | 0.00 | 1.68 | 0.00 | 98 | 1013.1 |
| 20260903081527 | 69 | 206 | 0.0 | 2.0 | 0.00 | 1.68 | 0.00 | 97 | 1013.0 |
| 20260903080026 | 69 | 206 | 0.0 | 2.0 | 0.00 | 1.68 | 0.00 | 97 | 1012.9 |
| 20260903074525 | 69 | 205 | 0.0 | 3.0 | 0.00 | 1.68 | 0.00 | 97 | 1013.0 |
| 20260903073036 | 70 | 207 | 0.0 | 3.0 | 0.00 | 1.68 | 0.00 | 97 | 1012.9 |
| 20260903071525 | 70 | 242 | 0.0 | 2.0 | 0.00 | 1.68 | 0.00 | 97 | 1012.8 |
| 20260903070034 | 70 | 154 | 0.0 | 7.0 | 0.00 | 1.68 | 0.00 | 98 | 1012.8 |
| 20260903064519 | 70 | 194 | 1.0 | 9.0 | 0.00 | 1.68 | 0.00 | 97 | 1013.2 |
| 20260903063019 | 70 | 227 | 1.0 | 6.0 | 0.00 | 1.68 | 0.00 | 98 | 1013.3 |
| 20260903061533 | 69 | 347 | 1.0 | 5.0 | 0.00 | 1.68 | 0.00 | 98 | 1013.2 |
| 20260903060017 | 69 | 265 | 1.0 | 4.0 | 0.00 | 1.68 | 0.00 | 98 | 1013.1 |
| 20260903054517 | 69 | 265 | 2.0 | 8.0 | 0.00 | 1.68 | 0.00 | 98 | 1012.8 |
| 20260903053015 | 70 | 275 | 2.0 | 9.0 | 0.00 | 1.68 | 0.00 | 99 | 1013.1 |
| 20260903051515 | 70 | 178 | 3.0 | 10.0 | 0.00 | 1.68 | 0.00 | 99 | 1012.9 |
| 20260903050014 | 69 | 177 | 2.0 | 9.0 | 0.00 | 1.68 | 0.00 | 99 | 1013.0 |
| 20260903044511 | 69 | 156 | 1.0 | 9.0 | 0.00 | 1.68 | 0.00 | 99 | 1013.0 |
| 20260903043009 | 69 | 182 | 0.0 | 3.0 | 0.00 | 1.68 | 0.00 | 99 | 1012.7 |
| 20260903041509 | 68 | 186 | 0.0 | 3.0 | 0.00 | 1.68 | 0.00 | 99 | 1012.5 |
| 20260903040008 | 69 | 174 | 0.0 | 2.0 | 0.00 | 1.68 | 1.68 | 99 | 1012.2 |
| 20260903034509 | 69 | 173 | 0.0 | 4.0 | 0.00 | 1.68 | 1.68 | 99 | 1012.2 |
| 20260903033005 | 69 | 207 | 0.0 | 3.0 | 0.00 | 1.68 | 1.68 | 99 | 1012.4 |
| 20260903031504 | 69 | 196 | 2.0 | 7.0 | 0.00 | 1.68 | 1.68 | 99 | 1012.7 |
| 20260903030004 | 69 | 204 | 1.0 | 6.0 | 0.00 | 1.68 | 1.68 | 99 | 1013.2 |
| 20260903024503 | 69 | 180 | 0.0 | 5.0 | 0.00 | 1.68 | 1.68 | 99 | 1013.0 |
| 20260903023003 | 69 | 163 | 0.0 | 7.0 | 0.01 | 1.68 | 1.68 | 99 | 1013.9 |
| 20260903021502 | 69 | 175 | 2.0 | 9.0 | 0.23 | 1.68 | 1.68 | 99 | 1013.7 |
| 20260903020003 | 69 | 173 | 2.0 | 6.0 | 0.24 | 1.68 | 1.68 | 99 | 1013.9 |
| 20260903014500 | 69 | 121 | 1.0 | 6.0 | 0.25 | 1.68 | 1.68 | 98 | 1013.7 |
| 20260903013001 | 69 | 91 | 2.0 | 6.0 | 0.24 | 1.67 | 1.67 | 98 | 1013.8 |
| 20260903011609 | 69 | 212 | 1.0 | 6.0 | 0.03 | 1.45 | 1.45 | 98 | 1013.4 |
| 20260903010117 | 69 | 190 | 1.0 | 8.0 | 0.04 | 1.44 | 1.44 | 98 | 1012.9 |
| 20260903004600 | 69 | 147 | 1.0 | 7.0 | 0.09 | 1.43 | 1.43 | 98 | 1012.5 |
| 20260903003104 | 69 | 48 | 0.0 | 0.0 | 0.14 | 1.43 | 1.43 | 97 | 1012.1 |
| 20260903001600 | 69 | 351 | 0.0 | 4.0 | 0.16 | 1.42 | 1.42 | 97 | 1012.1 |
| 20260903000058 | 69 | 328 | 4.0 | 10.0 | 0.56 | 1.40 | 1.40 | 97 | 1011.9 |
| 20260902234557 | 70 | 331 | 5.0 | 11.0 | 0.56 | 1.34 | 1.34 | 96 | 1012.7 |
| 20260902233057 | 71 | 341 | 6.0 | 14.0 | 0.52 | 1.29 | 1.29 | 95 | 1013.7 |
| 20260902231609 | 73 | 312 | 4.0 | 13.0 | 0.49 | 1.26 | 1.26 | 95 | 1013.5 |
| 20260902230055 | 75 | 319 | 0.0 | 8.0 | 0.06 | 0.83 | 0.83 | 92 | 1013.6 |
| 20260902224604 | 77 | 323 | 1.0 | 15.0 | 0.00 | 0.77 | 0.77 | 88 | 1012.3 |
| 20260902223057 | 80 | 341 | 0.0 | 8.0 | 0.00 | 0.77 | 0.77 | 89 | 1012.2 |
| 20260902221611 | 81 | 124 | 0.0 | 6.0 | 0.00 | 0.77 | 0.77 | 88 | 1011.8 |
| 20260902220059 | 82 | 194 | 2.0 | 9.0 | 0.00 | 0.77 | 0.77 | 87 | 1011.5 |
| 20260902214556 | 83 | 185 | 1.0 | 6.0 | 0.00 | 0.77 | 0.77 | 85 | 1011.1 |
| 20260902213052 | 83 | 196 | 1.0 | 7.0 | 0.00 | 0.77 | 0.77 | 85 | 1011.1 |
| 20260902211549 | 82 | 169 | 0.0 | 5.0 | 0.00 | 0.77 | 0.77 | 87 | 1011.8 |
| 20260902210049 | 80 | 189 | 0.0 | 4.0 | 0.00 | 0.77 | 0.77 | 90 | 1012.1 |
| 20260902204549 | 79 | 196 | 0.0 | 6.0 | 0.00 | 0.77 | 0.77 | 90 | 1012.4 |
| 20260902203045 | 79 | 144 | 1.0 | 4.0 | 0.00 | 0.77 | 0.77 | 89 | 1012.7 |
| 20260902201550 | 80 | 173 | 2.0 | 11.0 | 0.00 | 0.77 | 0.77 | 87 | 1013.3 |
| 20260902200041 | 81 | 194 | 0.0 | 11.0 | 0.00 | 0.77 | 0.77 | 85 | 1013.3 |
| 20260902194540 | 82 | 194 | 2.0 | 11.0 | 0.00 | 0.77 | 0.77 | 83 | 1013.9 |
| 20260902193045 | 83 | 281 | 2.0 | 11.0 | 0.00 | 0.77 | 0.77 | 83 | 1013.9 |
| 20260902191538 | 82 | 277 | 2.0 | 8.0 | 0.00 | 0.77 | 0.77 | 84 | 1013.9 |
| 20260902190037 | 82 | 192 | 3.0 | 13.0 | 0.00 | 0.77 | 0.77 | 82 | 1014.0 |
| 20260902184537 | 83 | 273 | 4.0 | 9.0 | 0.00 | 0.77 | 0.77 | 82 | 1014.0 |
| 20260902183038 | 82 | 197 | 1.0 | 10.0 | 0.00 | 0.77 | 0.77 | 86 | 1014.0 |
| 20260902181531 | 81 | 255 | 2.0 | 9.0 | 0.00 | 0.77 | 0.77 | 87 | 1014.1 |
| 20260902180027 | 79 | 153 | 2.0 | 6.0 | 0.00 | 0.77 | 0.77 | 88 | 1013.9 |
| 20260902174525 | 78 | 192 | 0.0 | 5.0 | 0.00 | 0.77 | 0.77 | 91 | 1014.1 |
| 20260902173025 | 76 | 176 | 1.0 | 6.0 | 0.00 | 0.77 | 0.77 | 93 | 1014.5 |
| 20260902171523 | 75 | 196 | 0.0 | 8.0 | 0.00 | 0.77 | 0.77 | 92 | 1014.9 |
| 20260902170023 | 76 | 181 | 1.0 | 3.0 | 0.00 | 0.77 | 0.77 | 90 | 1014.9 |
| 20260902164523 | 77 | 211 | 1.0 | 8.0 | 0.00 | 0.77 | 0.77 | 88 | 1016.1 |
| 20260902163024 | 78 | 342 | 0.0 | 7.0 | 0.00 | 0.77 | 0.77 | 88 | 1015.3 |
| 20260902161523 | 77 | 188 | 3.0 | 10.0 | 0.00 | 0.77 | 0.77 | 88 | 1014.7 |
| 20260902160020 | 78 | 232 | 1.0 | 8.0 | 0.00 | 0.77 | 0.77 | 88 | 1014.8 |
| 20260902154521 | 78 | 248 | 2.0 | 8.0 | 0.00 | 0.77 | 0.77 | 91 | 1015.0 |
| 20260902153036 | 76 | 211 | 2.0 | 9.0 | 0.00 | 0.77 | 0.77 | 96 | 1014.9 |
| 20260902151508 | 74 | 157 | 3.0 | 10.0 | 0.00 | 0.77 | 0.77 | 99 | 1015.2 |
| 20260902150003 | 73 | 263 | 2.0 | 7.0 | 0.00 | 0.77 | 0.77 | 100 | 1015.5 |
| 20260902144600 | 72 | 227 | 2.0 | 5.0 | 0.00 | 0.77 | 0.77 | 100 | 1015.6 |
| 20260902143059 | 70 | 148 | 1.0 | 6.0 | 0.00 | 0.77 | 0.77 | 100 | 1015.9 |
| 20260902141555 | 69 | 115 | 1.0 | 4.0 | 0.00 | 0.77 | 0.77 | 99 | 1016.1 |
| 20260902140056 | 69 | 132 | 1.0 | 3.0 | 0.00 | 0.77 | 0.77 | 99 | 1016.2 |
| 20260902134557 | 69 | 163 | 1.0 | 3.0 | 0.00 | 0.77 | 0.77 | 99 | 1016.1 |
| 20260902133056 | 70 | 163 | 2.0 | 4.0 | 0.01 | 0.77 | 0.77 | 99 | 1016.0 |
| 20260902131555 | 69 | 155 | 1.0 | 5.0 | 0.35 | 0.77 | 0.77 | 99 | 1015.8 |
| 20260902130051 | 69 | 86 | 0.0 | 2.0 | 0.72 | 0.77 | 0.77 | 99 | 1016.2 |
| 20260902124551 | 68 | 86 | 0.0 | 2.0 | 0.72 | 0.77 | 0.77 | 99 | 1016.5 |
| 20260902123057 | 68 | 44 | 1.0 | 7.0 | 0.72 | 0.76 | 0.76 | 99 | 1016.5 |
| 20260902121548 | 69 | 23 | 6.0 | 20.0 | 0.20 | 0.20 | 0.20 | 98 | 1016.5 |
| 20260902120046 | 69 | 56 | 6.0 | 20.0 | 0.05 | 0.05 | 0.05 | 98 | 1015.9 |
| 20260902114544 | 72 | 351 | 1.0 | 3.0 | 0.05 | 0.05 | 0.05 | 99 | 1014.8 |
| 20260902113038 | 72 | 163 | 0.0 | 4.0 | 0.04 | 0.04 | 0.04 | 100 | 1014.0 |
| 20260902111534 | 71 | 192 | 0.0 | 4.0 | 0.00 | 0.00 | 0.00 | 100 | 1013.8 |
| 20260902110040 | 71 | 186 | 0.0 | 5.0 | 0.00 | 0.00 | 0.00 | 99 | 1014.0 |
| 20260902104527 | 71 | 182 | 1.0 | 5.0 | 0.00 | 0.00 | 0.00 | 99 | 1013.3 |
| 20260902103024 | 71 | 179 | 1.0 | 5.0 | 0.00 | 0.00 | 0.00 | 99 | 1013.5 |
| 20260902101527 | 71 | 179 | 0.0 | 2.0 | 0.00 | 0.00 | 0.00 | 100 | 1013.5 |
| 20260902100021 | 71 | 181 | 1.0 | 4.0 | 0.00 | 0.00 | 0.00 | 99 | 1013.3 |
| 20260902094523 | 71 | 156 | 0.0 | 2.0 | 0.00 | 0.00 | 0.00 | 99 | 1013.7 |
| 20260902093029 | 71 | 156 | 0.0 | 2.0 | 0.00 | 0.00 | 0.00 | 99 | 1014.2 |
| 20260902091517 | 71 | 156 | 0.0 | 5.0 | 0.00 | 0.00 | 0.00 | 99 | 1014.1 |
| 20260902090015 | 71 | 196 | 0.0 | 2.0 | 0.00 | 0.00 | 0.00 | 99 | 1014.1 |
| 20260902084518 | 71 | 200 | 0.0 | 4.0 | 0.00 | 0.02 | 0.00 | 99 | 1014.3 |